gordon.dewis.ca - Random musings from Gordon

Subscribe

The weather forecast for tomorrow morning ends at 12Z and the Mayan calendar says EOW at 11:11Z. Hmmm…

December 20, 2012 @ 12:16 By: gordon Category: Astronomy, Weather

I was checking out the aviation forecast for Ottawa and saw this:

TAF CYOW 201438Z 2015/2112 31006KT P6SM FEW030 TEMPO 2015/2022 BKN030 BECMG 2016/2018 06005KT
FM202200 06012KT P6SM FEW015 OVC090
FM210200 08015G25KT 4SM -SN BKN030 OVC070
FM210500 08015G25KT 1SM -SN BLSN OVC010 PROB40 2105/2107 3SM -FZRA BR
FM210700 08015G25KT 1/2SM SN BLSN VV005 PROB30 2107/2110 2SM -PLSN -FZRA BR
FM211000 07018G28KT 1/4SM +SN BLSN VV002
RMK NXT FCST BY 201800Z=

Apart from the fact that it’s fairly disgusting weather in general with gusting winds, snow, blowing snow and the possibility of freezing rain and snow pellets, it also shows that it’s supposed to be very windy with excessive amounts of snow and blowing snow starting at 1100UTC, which you can see in red.

The Mayan calendar purportedly indicates that the world is supposed to end at 11:11UTC tomorrow morning and the forecast period doesn’t extend past 12:00UTC tomorrow morning (highlighted in fuchia). Coincidence or proof? (Hint: It’s a coincidence.)

Leave a Reply

CAPTCHA
*